createdAt,value
2017-08-02T05:56:52.882Z,1010.3
2017-08-02T05:57:55.339Z,1010.3
2017-08-02T05:58:57.792Z,1010.4
2017-08-02T05:59:59.903Z,1010.4
2017-08-02T06:01:02.332Z,1010.4
2017-08-02T06:02:04.769Z,1010.4
2017-08-02T06:03:07.570Z,1010.4
2017-08-02T06:04:09.646Z,1010.4
2017-08-02T06:05:12.065Z,1010.4
2017-08-02T06:06:14.523Z,1010.3
2017-08-02T06:07:16.605Z,1010.3
2017-08-02T06:08:18.700Z,1010.3
2017-08-02T06:09:21.474Z,1010.3
2017-08-02T06:10:23.576Z,1010.3
2017-08-02T06:11:25.704Z,1010.4
2017-08-02T06:12:27.793Z,1010.5
2017-08-02T06:13:29.923Z,1010.4
2017-08-02T06:14:32.362Z,1010.4
2017-08-02T06:15:34.793Z,1010.4
2017-08-02T06:16:36.894Z,1010.4
2017-08-02T06:17:39.328Z,1010.3
2017-08-02T06:18:41.752Z,1010.3
2017-08-02T06:19:43.844Z,1010.4
2017-08-02T06:20:46.300Z,1010.3
2017-08-02T06:21:48.772Z,1010.3
2017-08-02T06:22:50.863Z,1010.3
2017-08-02T06:23:52.940Z,1010.3
2017-08-02T06:24:55.038Z,1010.3
2017-08-02T06:25:57.144Z,1010.3
2017-08-02T06:26:59.906Z,1010.3
2017-08-02T06:28:01.996Z,1010.4
2017-08-02T06:29:04.778Z,1010.4
2017-08-02T06:30:07.213Z,1010.4
2017-08-02T06:31:09.641Z,1010.4
2017-08-02T06:32:11.751Z,1010.4
2017-08-02T06:33:13.876Z,1010.5
2017-08-02T06:34:15.986Z,1010.4
2017-08-02T06:35:18.086Z,1010.5
2017-08-02T06:36:20.196Z,1010.5
2017-08-02T06:37:22.638Z,1010.5
2017-08-02T06:38:25.421Z,1010.5
2017-08-02T06:39:27.530Z,1010.5
2017-08-02T06:40:29.626Z,1010.5
2017-08-02T06:41:32.053Z,1010.5
2017-08-02T06:42:34.144Z,1010.5
2017-08-02T06:43:36.944Z,1010.5
2017-08-02T06:44:39.065Z,1010.5
2017-08-02T06:45:41.488Z,1010.5
2017-08-02T06:46:43.924Z,1010.5
2017-08-02T06:47:46.021Z,1010.6
2017-08-02T06:48:48.121Z,1010.6
2017-08-02T06:49:50.558Z,1010.6
2017-08-02T06:50:52.678Z,1010.6
2017-08-02T06:51:55.106Z,1010.6
2017-08-02T06:52:57.188Z,1010.6
2017-08-02T06:53:59.631Z,1010.6
2017-08-02T06:55:01.728Z,1010.6
2017-08-02T06:56:04.496Z,1010.6
2017-08-02T06:57:06.604Z,1010.6
2017-08-02T06:58:08.699Z,1010.6
2017-08-02T06:59:11.126Z,1010.6
2017-08-02T07:00:13.208Z,1010.7
2017-08-02T07:01:15.307Z,1010.7
2017-08-02T07:02:17.408Z,1010.7
2017-08-02T07:03:19.492Z,1010.7
2017-08-02T07:04:21.923Z,1010.7
2017-08-02T07:05:24.017Z,1010.8
2017-08-02T07:06:26.444Z,1010.7
2017-08-02T07:07:28.554Z,1010.7
2017-08-02T07:08:30.643Z,1010.7
2017-08-02T07:09:33.116Z,1010.8
2017-08-02T07:10:35.208Z,1010.7
2017-08-02T07:11:37.628Z,1010.7
2017-08-02T07:12:39.736Z,1010.7
2017-08-02T07:13:42.174Z,1010.7
2017-08-02T07:14:44.278Z,1010.7
2017-08-02T07:15:46.426Z,1010.7
2017-08-02T07:16:48.856Z,1010.7
2017-08-02T07:17:50.955Z,1010.7
2017-08-02T07:18:53.062Z,1010.7
2017-08-02T07:19:55.477Z,1010.7
2017-08-02T07:20:57.909Z,1010.7
2017-08-02T07:22:00.001Z,1010.7
2017-08-02T07:23:02.091Z,1010.7
2017-08-02T07:24:04.563Z,1010.7
2017-08-02T07:25:06.659Z,1010.8
2017-08-02T07:26:08.777Z,1010.8
2017-08-02T07:27:10.873Z,1010.8
2017-08-02T07:28:12.956Z,1010.8
2017-08-02T07:29:15.395Z,1010.8
2017-08-02T07:30:17.486Z,1010.8
2017-08-02T07:31:19.920Z,1010.8
2017-08-02T07:32:22.013Z,1010.8
2017-08-02T07:33:24.451Z,1010.8
2017-08-02T07:34:26.889Z,1010.8
2017-08-02T07:35:28.963Z,1010.8
2017-08-02T07:36:31.066Z,1010.8
2017-08-02T07:37:33.170Z,1010.8
2017-08-02T07:38:35.602Z,1010.8
2017-08-02T07:39:37.691Z,1010.8
2017-08-02T07:40:40.138Z,1010.8
2017-08-02T07:41:42.261Z,1010.8
2017-08-02T07:42:44.343Z,1010.8
2017-08-02T07:43:46.428Z,1010.8
2017-08-02T07:44:48.880Z,1010.8
2017-08-02T07:45:51.302Z,1010.8
2017-08-02T07:46:53.385Z,1010.8
2017-08-02T07:47:55.475Z,1010.8
2017-08-02T07:48:57.564Z,1010.8
2017-08-02T07:50:00.356Z,1010.8
2017-08-02T07:51:53.763Z,1010.8
2017-08-02T07:52:55.858Z,1010.7
2017-08-02T07:53:57.964Z,1010.7
2017-08-02T07:55:00.417Z,1010.7
2017-08-02T07:56:03.536Z,1010.7
2017-08-02T07:57:05.968Z,1010.7
2017-08-02T07:58:08.069Z,1010.8
2017-08-02T07:59:10.174Z,1010.7
2017-08-02T08:00:12.617Z,1010.8
2017-08-02T08:01:15.054Z,1010.7
2017-08-02T08:02:17.578Z,1010.8
2017-08-02T08:03:19.671Z,1010.8
2017-08-02T08:04:22.101Z,1010.8
2017-08-02T08:05:24.185Z,1010.8
2017-08-02T08:06:26.288Z,1010.8
2017-08-02T08:07:28.354Z,1010.8
2017-08-02T08:08:30.444Z,1010.8
2017-08-02T08:09:32.893Z,1010.8
2017-08-02T08:10:34.985Z,1010.8
2017-08-02T08:11:37.431Z,1010.8
2017-08-02T08:12:39.531Z,1010.9
2017-08-02T08:13:41.966Z,1010.8
2017-08-02T08:14:44.426Z,1010.9
2017-08-02T08:15:46.512Z,1010.9
2017-08-02T08:16:48.615Z,1010.9
2017-08-02T08:17:51.056Z,1011
2017-08-02T08:18:53.122Z,1010.9
2017-08-02T08:19:55.561Z,1010.9
2017-08-02T08:20:57.997Z,1010.9
2017-08-02T08:22:00.452Z,1010.9
2017-08-02T08:23:02.548Z,1010.8
2017-08-02T08:24:04.635Z,1010.8
2017-08-02T08:25:07.082Z,1010.8
2017-08-02T08:26:09.159Z,1010.8
2017-08-02T08:27:11.617Z,1010.8
2017-08-02T08:28:13.722Z,1010.8
2017-08-02T08:29:15.822Z,1010.8
2017-08-02T08:30:17.921Z,1010.8
2017-08-02T08:31:20.020Z,1010.8
2017-08-02T08:32:22.110Z,1010.8
2017-08-02T08:33:24.545Z,1010.8
2017-08-02T08:34:26.639Z,1010.8
2017-08-02T08:35:28.727Z,1010.8
2017-08-02T08:36:30.827Z,1010.8
2017-08-02T08:37:33.256Z,1010.8
2017-08-02T08:38:35.350Z,1010.9
2017-08-02T08:39:38.114Z,1010.9
2017-08-02T08:40:40.205Z,1010.9
2017-08-02T08:41:42.288Z,1010.9
2017-08-02T08:42:44.723Z,1010.9
2017-08-02T08:43:46.802Z,1010.9
2017-08-02T08:44:49.258Z,1011
2017-08-02T08:45:51.696Z,1010.9
2017-08-02T08:46:53.790Z,1010.9
2017-08-02T08:47:56.239Z,1011
2017-08-02T08:48:58.339Z,1011
2017-08-02T08:50:00.416Z,1011
2017-08-02T08:51:02.868Z,1010.9
2017-08-02T08:52:05.661Z,1010.9
2017-08-02T08:53:07.758Z,1010.9
2017-08-02T08:54:09.852Z,1010.9
2017-08-02T08:55:11.948Z,1010.8
2017-08-02T08:56:14.039Z,1010.8
2017-08-02T08:57:16.489Z,1010.9
2017-08-02T08:58:18.908Z,1010.9
2017-08-02T08:59:21.374Z,1010.9
2017-08-02T09:00:24.149Z,1010.9
2017-08-02T09:01:26.573Z,1010.9
2017-08-02T09:02:28.664Z,1010.9
2017-08-02T09:03:30.759Z,1011
2017-08-02T09:04:32.856Z,1011
2017-08-02T09:05:34.952Z,1011
2017-08-02T09:06:37.040Z,1011
2017-08-02T09:07:39.144Z,1011
2017-08-02T09:08:41.236Z,1011
2017-08-02T09:09:43.340Z,1011
2017-08-02T09:10:45.753Z,1011
2017-08-02T09:11:47.833Z,1011
2017-08-02T09:12:49.931Z,1011
2017-08-02T09:13:52.379Z,1011
2017-08-02T09:14:54.475Z,1010.9
2017-08-02T09:15:56.557Z,1010.9
2017-08-02T09:16:58.666Z,1010.8
2017-08-02T09:18:01.097Z,1010.8
2017-08-02T09:19:03.873Z,1010.8
2017-08-02T09:20:05.974Z,1010.8
2017-08-02T09:21:08.425Z,1010.8
2017-08-02T09:22:10.530Z,1010.8
2017-08-02T09:23:12.621Z,1010.8
2017-08-02T09:24:15.059Z,1010.9
2017-08-02T09:25:17.178Z,1010.8
2017-08-02T09:26:19.263Z,1010.9
2017-08-02T09:27:21.694Z,1010.8
2017-08-02T09:28:24.129Z,1010.8
2017-08-02T09:29:26.909Z,1010.8
2017-08-02T09:30:28.995Z,1010.8
2017-08-02T09:31:31.442Z,1010.8
2017-08-02T09:32:33.898Z,1010.8
2017-08-02T09:33:36.353Z,1010.8
2017-08-02T09:34:38.790Z,1010.8
2017-08-02T09:35:41.229Z,1010.8
2017-08-02T09:36:43.319Z,1010.9
2017-08-02T09:37:45.773Z,1010.9
2017-08-02T09:38:48.229Z,1010.9
2017-08-02T09:39:50.341Z,1011
2017-08-02T09:40:52.813Z,1011
2017-08-02T09:41:54.905Z,1011
2017-08-02T09:42:57.001Z,1011
2017-08-02T09:43:59.447Z,1011
2017-08-02T09:45:01.897Z,1011
2017-08-02T09:46:03.991Z,1011
2017-08-02T09:47:06.081Z,1011
2017-08-02T09:48:08.512Z,1010.9
2017-08-02T09:49:10.619Z,1010.9
2017-08-02T09:50:13.083Z,1010.9
2017-08-02T09:51:15.173Z,1010.9
2017-08-02T09:52:17.281Z,1011
2017-08-02T09:53:20.074Z,1010.9
2017-08-02T09:54:22.514Z,1010.9
2017-08-02T09:55:24.611Z,1010.9
2017-08-02T09:56:26.723Z,1011
2017-08-02T09:57:28.849Z,1011
2017-08-02T09:58:31.297Z,1010.9
2017-08-02T09:59:33.402Z,1011
2017-08-02T10:00:35.520Z,1011
2017-08-02T10:01:37.999Z,1011
2017-08-02T10:02:40.102Z,1011
2017-08-02T10:03:42.550Z,1011
2017-08-02T10:04:45.005Z,1011
2017-08-02T10:05:47.100Z,1011
2017-08-02T10:06:49.223Z,1011
2017-08-02T10:07:51.331Z,1011
2017-08-02T10:08:53.424Z,1011
2017-08-02T10:09:55.536Z,1011
2017-08-02T10:10:57.630Z,1011
2017-08-02T10:11:59.733Z,1011
2017-08-02T10:13:01.854Z,1011
2017-08-02T10:14:03.955Z,1010.9
2017-08-02T10:15:06.079Z,1011
2017-08-02T10:16:08.548Z,1011
2017-08-02T10:17:10.654Z,1011
2017-08-02T10:18:12.760Z,1011
2017-08-02T10:19:15.205Z,1011
2017-08-02T10:20:17.337Z,1011
2017-08-02T10:21:20.132Z,1011
2017-08-02T10:22:22.217Z,1011
2017-08-02T10:23:24.336Z,1011
2017-08-02T10:24:26.440Z,1010.9
2017-08-02T10:25:28.890Z,1011
2017-08-02T10:26:31.009Z,1011
2017-08-02T10:27:33.116Z,1011
2017-08-02T10:28:35.571Z,1011
2017-08-02T10:29:37.688Z,1011.1
2017-08-02T10:30:40.137Z,1011.1
2017-08-02T10:31:42.555Z,1011.1
2017-08-02T10:32:44.678Z,1011
2017-08-02T10:33:46.795Z,1011
2017-08-02T10:34:48.899Z,1011
2017-08-02T10:35:51.350Z,1011
2017-08-02T10:36:53.457Z,1011
2017-08-02T10:37:55.561Z,1011
2017-08-02T10:38:57.652Z,1011
2017-08-02T10:39:59.759Z,1011
2017-08-02T10:41:01.875Z,1011
2017-08-02T10:42:03.971Z,1011
2017-08-02T10:43:06.076Z,1011
2017-08-02T10:44:08.211Z,1011
2017-08-02T10:45:10.338Z,1011
2017-08-02T10:46:12.433Z,1010.9
2017-08-02T10:47:14.873Z,1011
2017-08-02T10:48:17.322Z,1010.9
2017-08-02T10:49:19.420Z,1011
2017-08-02T10:50:21.527Z,1011
2017-08-02T10:51:23.635Z,1011
2017-08-02T10:52:25.743Z,1010.8
2017-08-02T10:53:28.192Z,1010.9
2017-08-02T10:54:30.285Z,1010.8
2017-08-02T10:55:33.083Z,1010.8
2017-08-02T10:56:35.192Z,1010.8
2017-08-02T10:57:37.643Z,1010.8
2017-08-02T10:58:39.751Z,1010.8
2017-08-02T10:59:41.854Z,1010.8
2017-08-02T11:00:44.327Z,1010.8
2017-08-02T11:01:46.421Z,1010.8
2017-08-02T11:02:48.868Z,1010.8
2017-08-02T11:03:51.321Z,1010.8
2017-08-02T11:04:53.408Z,1010.8
2017-08-02T11:05:55.516Z,1010.8
2017-08-02T11:06:57.615Z,1010.8
2017-08-02T11:07:59.727Z,1010.8
2017-08-02T11:09:02.211Z,1010.8
2017-08-02T11:10:04.636Z,1010.8
2017-08-02T11:11:07.084Z,1010.8
2017-08-02T11:12:09.171Z,1010.8
2017-08-02T11:13:11.269Z,1010.8
2017-08-02T11:14:13.723Z,1010.8
2017-08-02T11:15:15.816Z,1010.8
2017-08-02T11:16:18.259Z,1010.7
2017-08-02T11:17:20.368Z,1010.7
2017-08-02T11:18:23.168Z,1010.8
2017-08-02T11:19:25.626Z,1010.6
2017-08-02T11:20:28.061Z,1010.7
2017-08-02T11:21:30.167Z,1010.7
2017-08-02T11:22:32.262Z,1010.8
2017-08-02T11:23:34.716Z,1010.8
2017-08-02T11:24:37.161Z,1010.8
2017-08-02T11:25:39.283Z,1010.8
2017-08-02T11:26:41.743Z,1010.8
2017-08-02T11:27:43.871Z,1010.8
2017-08-02T11:28:46.336Z,1010.8
2017-08-02T11:29:48.440Z,1010.8
2017-08-02T11:30:50.558Z,1010.8
2017-08-02T11:31:53.005Z,1010.8
2017-08-02T11:32:55.124Z,1010.8
2017-08-02T11:33:57.245Z,1010.7
2017-08-02T11:34:59.337Z,1010.6
2017-08-02T11:36:01.445Z,1010.7
2017-08-02T11:37:03.878Z,1010.6
2017-08-02T11:38:06.343Z,1010.5
2017-08-02T11:39:08.451Z,1010.5
2017-08-02T11:40:11.248Z,1010.5
2017-08-02T11:41:13.352Z,1010.5
2017-08-02T11:42:15.448Z,1010.5
2017-08-02T11:43:18.255Z,1010.5
2017-08-02T11:44:20.701Z,1010.4
2017-08-02T11:45:22.791Z,1010.4
2017-08-02T11:46:25.243Z,1010.3
2017-08-02T11:47:27.672Z,1010.3
2017-08-02T11:48:29.781Z,1010.3
2017-08-02T11:49:31.901Z,1010.2
2017-08-02T11:50:34.011Z,1010.2
2017-08-02T11:51:36.130Z,1010.3
2017-08-02T11:52:38.555Z,1010.2
2017-08-02T11:53:40.654Z,1010.2
2017-08-02T11:54:43.145Z,1010.3
2017-08-02T11:55:45.250Z,1010.2
2017-08-02T11:56:47.356Z,1010.2
2017-08-02T11:57:49.468Z,1010.2
2017-08-02T11:58:51.911Z,1010.2
2017-08-02T11:59:53.998Z,1010.1
2017-08-02T12:00:56.110Z,1010
2017-08-02T12:01:58.232Z,1010
2017-08-02T12:03:01.027Z,1010.1
2017-08-02T12:04:03.156Z,1010.2
2017-08-02T12:05:05.623Z,1010.2
2017-08-02T12:06:07.729Z,1010.2
2017-08-02T12:07:09.857Z,1010.3
2017-08-02T12:08:12.293Z,1010.3
2017-08-02T12:09:15.115Z,1010.3
2017-08-02T12:10:17.568Z,1010.2
2017-08-02T12:11:19.663Z,1010.2
2017-08-02T12:12:21.790Z,1010.2
2017-08-02T12:13:23.904Z,1010.2
2017-08-02T12:14:26.347Z,1010.2
2017-08-02T12:15:28.800Z,1010.2
2017-08-02T12:16:30.909Z,1010
2017-08-02T12:17:33.003Z,1010
2017-08-02T12:18:35.108Z,1010
2017-08-02T12:19:37.218Z,1010.1
2017-08-02T12:20:39.653Z,1010.1
2017-08-02T12:21:42.114Z,1010.1
2017-08-02T12:22:44.248Z,1010.1
2017-08-02T12:23:46.692Z,1010.1
2017-08-02T12:24:48.806Z,1010.1
2017-08-02T12:25:50.912Z,1010.1
2017-08-02T12:26:53.033Z,1010
2017-08-02T12:27:55.138Z,1010
2017-08-02T12:28:57.584Z,1010.1
2017-08-02T12:29:59.702Z,1010.1
2017-08-02T12:31:01.799Z,1010.1
2017-08-02T12:32:04.588Z,1010.1
2017-08-02T12:33:06.700Z,1010.1
2017-08-02T12:34:09.489Z,1010.1
2017-08-02T12:35:11.949Z,1010.1
2017-08-02T12:36:14.075Z,1010.1
2017-08-02T12:37:16.527Z,1010.1
2017-08-02T12:38:18.991Z,1010.1
2017-08-02T12:39:21.571Z,1010.1
2017-08-02T12:40:24.375Z,1010.1
2017-08-02T12:41:27.236Z,1010.1
2017-08-02T12:42:29.353Z,1010.1
2017-08-02T12:43:31.484Z,1010
2017-08-02T12:44:33.613Z,1010
2017-08-02T12:45:35.721Z,1010
2017-08-02T12:46:37.843Z,1010
2017-08-02T12:47:40.817Z,1010.1
2017-08-02T12:48:42.960Z,1010
2017-08-02T12:49:45.112Z,1010
2017-08-02T12:50:47.228Z,1010
2017-08-02T12:51:49.712Z,1010
2017-08-02T12:52:52.972Z,1010
2017-08-02T12:53:55.146Z,1009.9
2017-08-02T12:54:57.588Z,1009.9
2017-08-02T12:55:59.701Z,1009.9
2017-08-02T12:57:02.513Z,1009.9
2017-08-02T12:58:05.404Z,1009.8
2017-08-02T12:59:07.857Z,1009.8
2017-08-02T13:00:10.307Z,1009.8
2017-08-02T13:01:12.504Z,1009.8
2017-08-02T13:02:18.753Z,1009.8
2017-08-02T13:03:23.150Z,1009.8
2017-08-02T13:04:25.267Z,1009.8
2017-08-02T13:05:27.405Z,1009.8
2017-08-02T13:06:29.861Z,1009.8
2017-08-02T13:07:32.304Z,1009.7
2017-08-02T13:08:34.778Z,1009.7
2017-08-02T13:09:36.903Z,1009.8
2017-08-02T13:10:39.498Z,1009.8
2017-08-02T13:11:41.630Z,1009.8
2017-08-02T13:12:44.122Z,1009.8
2017-08-02T13:13:46.594Z,1009.7
2017-08-02T13:14:49.172Z,1009.7
2017-08-02T13:15:51.641Z,1009.6
2017-08-02T13:16:53.749Z,1009.7
2017-08-02T13:17:55.847Z,1009.6
2017-08-02T13:18:58.018Z,1009.6
2017-08-02T13:20:00.156Z,1009.7
2017-08-02T13:21:02.524Z,1009.7
2017-08-02T13:22:04.648Z,1009.7
2017-08-02T13:23:06.790Z,1009.6
2017-08-02T13:24:08.910Z,1009.7
2017-08-02T13:25:11.006Z,1009.7
2017-08-02T13:26:13.188Z,1009.7
2017-08-02T13:27:15.739Z,1009.7
2017-08-02T13:28:17.889Z,1009.7
2017-08-02T13:29:20.350Z,1009.6
2017-08-02T13:30:22.456Z,1009.6
2017-08-02T13:31:24.559Z,1009.6
2017-08-02T13:32:27.396Z,1009.6
2017-08-02T13:33:29.502Z,1009.6
2017-08-02T13:34:31.630Z,1009.5
2017-08-02T13:35:34.778Z,1009.5
2017-08-02T13:36:36.893Z,1009.5
2017-08-02T13:37:39.022Z,1009.6
2017-08-02T13:38:41.121Z,1009.6
2017-08-02T13:39:43.246Z,1009.6
2017-08-02T13:40:45.362Z,1009.5
2017-08-02T13:41:47.465Z,1009.5
2017-08-02T13:42:49.931Z,1009.5
2017-08-02T13:43:52.122Z,1009.5
2017-08-02T13:44:54.252Z,1009.5
2017-08-02T13:45:56.355Z,1009.4
2017-08-02T13:46:58.829Z,1009.5
2017-08-02T13:48:00.952Z,1009.3
2017-08-02T13:49:03.728Z,1009.4
2017-08-02T13:50:06.261Z,1009.3
2017-08-02T13:51:09.207Z,1009.4
2017-08-02T13:52:11.394Z,1009.4
2017-08-02T13:53:13.522Z,1009.4
2017-08-02T13:54:15.960Z,1009.3
2017-08-02T13:55:18.192Z,1009.3
2017-08-02T13:56:20.848Z,1009.3
2017-08-02T13:57:22.956Z,1009.3
2017-08-02T13:58:25.117Z,1009.3
2017-08-02T13:59:27.282Z,1009.3
2017-08-02T14:00:29.380Z,1009.3
2017-08-02T14:01:31.509Z,1009.3
2017-08-02T14:02:33.972Z,1009.3
2017-08-02T14:03:36.085Z,1009.3
2017-08-02T14:04:38.562Z,1009.3
2017-08-02T14:05:40.685Z,1009.3
2017-08-02T14:06:43.158Z,1009.3
2017-08-02T14:07:45.247Z,1009.3
2017-08-02T14:08:47.701Z,1009.3
2017-08-02T14:09:50.169Z,1009.3
2017-08-02T14:10:52.275Z,1009.3
2017-08-02T14:11:54.750Z,1009.3
2017-08-02T14:12:56.867Z,1009.2
2017-08-02T14:13:59.999Z,1009.3
2017-08-02T14:15:02.129Z,1009.2
2017-08-02T14:16:05.034Z,1009.2
2017-08-02T14:17:07.829Z,1009.2
2017-08-02T14:18:10.279Z,1009.1
2017-08-02T14:19:12.382Z,1009.1
2017-08-02T14:20:14.859Z,1009.1
2017-08-02T14:21:17.161Z,1009.1
2017-08-02T14:22:19.608Z,1009.1
2017-08-02T14:23:22.656Z,1009
2017-08-02T14:24:24.753Z,1009.2
2017-08-02T14:25:26.987Z,1009.1
2017-08-02T14:26:29.542Z,1009.2
2017-08-02T14:27:31.668Z,1009.1
2017-08-02T14:28:33.776Z,1009.1
2017-08-02T14:29:35.861Z,1009.1
2017-08-02T14:30:37.973Z,1009
2017-08-02T14:31:40.436Z,1009.1
2017-08-02T14:32:42.893Z,1009.1
2017-08-02T14:33:45.019Z,1009.1
2017-08-02T14:34:47.129Z,1009.1
2017-08-02T14:35:50.620Z,1009.1
2017-08-02T14:37:00.696Z,1009
2017-08-02T14:38:16.196Z,1009.1
2017-08-02T14:39:22.584Z,1009.1
2017-08-02T14:40:29.702Z,1009
2017-08-02T14:41:37.811Z,1009.1
2017-08-02T14:42:46.720Z,1009.1
2017-08-02T14:43:53.165Z,1009
2017-08-02T14:44:55.257Z,1009
2017-08-02T14:45:57.376Z,1009
2017-08-02T14:46:59.493Z,1009
2017-08-02T14:48:01.601Z,1009
2017-08-02T14:49:04.389Z,1009
2017-08-02T14:50:06.838Z,1009
2017-08-02T14:51:08.953Z,1009
2017-08-02T14:52:11.411Z,1009
2017-08-02T14:53:13.521Z,1009
2017-08-02T14:54:15.955Z,1009.1
2017-08-02T14:55:18.398Z,1009.1
2017-08-02T14:56:20.518Z,1009.1
2017-08-02T14:57:22.636Z,1009.1
2017-08-02T14:58:24.728Z,1009.2
2017-08-02T14:59:26.835Z,1009.2
2017-08-02T15:00:28.943Z,1009.3
2017-08-02T15:01:31.387Z,1009.2
2017-08-02T15:02:33.824Z,1009.2
2017-08-02T15:03:35.950Z,1009.2
2017-08-02T15:04:38.057Z,1009.2
2017-08-02T15:05:40.850Z,1009.2
2017-08-02T15:06:42.984Z,1009.2
2017-08-02T15:07:45.087Z,1009.2
2017-08-02T15:08:47.577Z,1009.2
2017-08-02T15:09:49.686Z,1009.2
2017-08-02T15:10:51.782Z,1009.2
2017-08-02T15:11:53.896Z,1009.1
2017-08-02T15:12:55.999Z,1009.1
2017-08-02T15:13:58.443Z,1009.1
2017-08-02T15:15:00.566Z,1009.1
2017-08-02T15:16:03.004Z,1009.1
2017-08-02T15:17:05.798Z,1009.1
2017-08-02T15:18:08.596Z,1009.1
2017-08-02T15:19:10.699Z,1009.1
2017-08-02T15:20:12.794Z,1009
2017-08-02T15:21:14.900Z,1008.9
2017-08-02T15:22:17.691Z,1008.9
2017-08-02T15:23:19.792Z,1008.9
2017-08-02T15:24:21.890Z,1008.9
2017-08-02T15:25:24.004Z,1008.9
2017-08-02T15:26:26.107Z,1008.9
2017-08-02T15:27:28.223Z,1008.9
2017-08-02T15:28:31.017Z,1008.9
2017-08-02T15:29:33.648Z,1008.8
2017-08-02T15:30:35.757Z,1008.8
2017-08-02T15:31:37.861Z,1008.8
2017-08-02T15:32:39.962Z,1008.8
2017-08-02T15:33:42.403Z,1008.8
2017-08-02T15:34:44.505Z,1008.8
2017-08-02T15:35:46.602Z,1008.8
2017-08-02T15:36:48.723Z,1008.8
2017-08-02T15:37:50.820Z,1008.7
2017-08-02T15:38:52.947Z,1008.6
2017-08-02T15:39:55.049Z,1008.7
2017-08-02T15:40:57.160Z,1008.6
2017-08-02T15:41:59.605Z,1008.7
2017-08-02T15:43:01.696Z,1008.5
2017-08-02T15:44:03.800Z,1008.5
2017-08-02T15:45:05.898Z,1008.5
2017-08-02T15:46:08.013Z,1008.5
2017-08-02T15:47:10.152Z,1008.5
2017-08-02T15:48:12.581Z,1008.5
2017-08-02T15:49:14.687Z,1008.4
2017-08-02T15:50:16.811Z,1008.4
2017-08-02T15:51:19.589Z,1008.4
2017-08-02T15:52:22.042Z,1008.4
2017-08-02T15:53:24.192Z,1008.3
2017-08-02T15:54:26.642Z,1008.4
2017-08-02T15:55:28.770Z,1008.3
2017-08-02T15:56:30.849Z,1008.4
2017-08-02T15:57:32.976Z,1008.4
2017-08-02T15:58:35.070Z,1008.3
2017-08-02T15:59:37.922Z,1008.3
2017-08-02T16:00:40.036Z,1008.3
2017-08-02T16:01:42.473Z,1008.3
2017-08-02T16:02:44.595Z,1008.3
2017-08-02T16:03:46.701Z,1008.3
2017-08-02T16:04:49.149Z,1008.3
2017-08-02T16:05:51.274Z,1008.3
2017-08-02T16:06:53.386Z,1008.3
2017-08-02T16:07:55.813Z,1008.3
2017-08-02T16:08:57.947Z,1008.3
2017-08-02T16:10:00.067Z,1008.3
2017-08-02T16:11:02.170Z,1008.3
2017-08-02T16:12:04.246Z,1008.3
2017-08-02T16:13:06.693Z,1008.3
2017-08-02T16:14:08.804Z,1008.3
2017-08-02T16:15:10.917Z,1008.2
2017-08-02T16:16:13.699Z,1008.3
2017-08-02T16:17:15.806Z,1008.3
2017-08-02T16:18:18.238Z,1008.3
2017-08-02T16:19:20.698Z,1008.3
2017-08-02T16:20:22.828Z,1008.3
2017-08-02T16:21:25.276Z,1008.3
2017-08-02T16:22:27.382Z,1008.3
2017-08-02T16:23:29.828Z,1008.3
2017-08-02T16:24:31.925Z,1008.3
2017-08-02T16:25:34.037Z,1008.3
2017-08-02T16:26:36.138Z,1008.3
2017-08-02T16:27:38.255Z,1008.3
2017-08-02T16:28:41.089Z,1008.2
2017-08-02T16:29:43.204Z,1008.2
2017-08-02T16:30:45.625Z,1008.3
2017-08-02T16:31:48.064Z,1008.3
2017-08-02T16:32:50.510Z,1008.2
2017-08-02T16:33:52.614Z,1008.2
2017-08-02T16:34:54.718Z,1008.2
2017-08-02T16:35:56.805Z,1008.2
2017-08-02T16:36:58.901Z,1008.2
2017-08-02T16:38:00.972Z,1008.3
2017-08-02T16:39:03.424Z,1008.2
2017-08-02T16:40:05.879Z,1008.2
2017-08-02T16:41:07.975Z,1008.2
2017-08-02T16:42:10.067Z,1008.2
2017-08-02T16:43:12.508Z,1008.3
2017-08-02T16:44:14.935Z,1008.2
2017-08-02T16:45:17.068Z,1008.2
2017-08-02T16:46:19.152Z,1008.2
2017-08-02T16:47:21.259Z,1008.2
2017-08-02T16:48:23.369Z,1008.2
2017-08-02T16:49:25.474Z,1008.2
2017-08-02T16:50:27.580Z,1008.3
2017-08-02T16:51:30.022Z,1008.3
2017-08-02T16:52:32.102Z,1008.3
2017-08-02T16:53:34.900Z,1008.4
2017-08-02T16:54:37.000Z,1008.4
2017-08-02T16:55:39.102Z,1008.5
2017-08-02T16:56:41.565Z,1008.5
2017-08-02T16:57:43.671Z,1008.6
2017-08-02T16:58:45.782Z,1008.5
2017-08-02T16:59:48.200Z,1008.4
2017-08-02T17:00:50.299Z,1008.3
2017-08-02T17:01:52.768Z,1008.5
2017-08-02T17:02:55.192Z,1008.5
2017-08-02T17:03:57.309Z,1008.5
2017-08-02T17:04:59.745Z,1008.5
2017-08-02T17:06:01.859Z,1008.5
2017-08-02T17:07:04.330Z,1008.5
2017-08-02T17:08:06.771Z,1008.6
2017-08-02T17:09:09.228Z,1008.6
2017-08-02T17:10:11.734Z,1008.6
2017-08-02T17:11:14.180Z,1008.5
2017-08-02T17:12:16.311Z,1008.5
2017-08-02T17:13:18.403Z,1008.5
2017-08-02T17:14:20.511Z,1008.5
2017-08-02T17:15:22.621Z,1008.5
2017-08-02T17:16:25.050Z,1008.5
2017-08-02T17:17:27.170Z,1008.5
2017-08-02T17:18:29.253Z,1008.5
2017-08-02T17:19:31.387Z,1008.6
2017-08-02T17:20:33.836Z,1008.6
2017-08-02T17:21:35.929Z,1008.6
2017-08-02T17:22:38.380Z,1008.6
2017-08-02T17:23:40.476Z,1008.7
2017-08-02T17:24:42.573Z,1008.7
2017-08-02T17:25:44.712Z,1008.7
2017-08-02T17:26:46.804Z,1008.7
2017-08-02T17:27:49.262Z,1008.6
2017-08-02T17:28:51.375Z,1008.6
2017-08-02T17:29:53.822Z,1008.7
2017-08-02T17:30:55.927Z,1008.6
2017-08-02T17:31:58.020Z,1008.6
2017-08-02T17:33:00.604Z,1008.7
2017-08-02T17:34:03.672Z,1008.6
2017-08-02T17:35:06.449Z,1008.6
2017-08-02T17:36:09.594Z,1008.6
2017-08-02T17:37:12.305Z,1008.6
2017-08-02T17:38:15.439Z,1008.5
2017-08-02T17:39:18.024Z,1008.5
2017-08-02T17:40:20.462Z,1008.5
2017-08-02T17:41:22.559Z,1008.5
2017-08-02T17:42:24.998Z,1008.5
2017-08-02T17:43:27.114Z,1008.6
2017-08-02T17:44:29.265Z,1008.6
2017-08-02T17:45:31.702Z,1008.6
2017-08-02T17:46:34.153Z,1008.6
2017-08-02T17:47:36.591Z,1008.6
2017-08-02T17:48:39.036Z,1008.7
2017-08-02T17:49:41.164Z,1008.7
2017-08-02T17:50:43.268Z,1008.7
2017-08-02T17:51:45.395Z,1008.7
2017-08-02T17:52:47.498Z,1008.7
2017-08-02T17:53:49.580Z,1008.7
2017-08-02T17:54:52.060Z,1008.7
2017-08-02T17:55:54.164Z,1008.8
2017-08-02T17:56:56.612Z,1008.8
2017-08-02T17:57:58.728Z,1008.8
2017-08-02T17:59:01.177Z,1008.8
2017-08-02T18:00:03.607Z,1008.8
2017-08-02T18:01:05.713Z,1008.8
2017-08-02T18:02:08.409Z,1008.9
2017-08-02T18:03:10.882Z,1008.8
2017-08-02T18:04:13.692Z,1008.8
2017-08-02T18:05:15.806Z,1008.8
2017-08-02T18:06:17.943Z,1008.8
2017-08-02T18:07:20.393Z,1008.8
2017-08-02T18:08:23.176Z,1008.8
2017-08-02T18:09:25.285Z,1008.8
2017-08-02T18:10:27.720Z,1008.8
2017-08-02T18:11:29.827Z,1008.9
2017-08-02T18:12:32.624Z,1008.9
2017-08-02T18:13:34.781Z,1008.9
2017-08-02T18:14:37.570Z,1008.9
2017-08-02T18:15:39.661Z,1008.8
2017-08-02T18:16:41.774Z,1008.8
2017-08-02T18:17:44.912Z,1008.8
2017-08-02T18:18:47.010Z,1008.8
2017-08-02T18:19:49.125Z,1008.9
2017-08-02T18:20:51.228Z,1008.8
2017-08-02T18:21:53.675Z,1008.8
2017-08-02T18:22:55.783Z,1008.8
2017-08-02T18:23:57.877Z,1008.8
2017-08-02T18:25:00.011Z,1008.8
2017-08-02T18:26:02.446Z,1008.8
2017-08-02T18:27:04.898Z,1008.8
2017-08-02T18:28:06.997Z,1008.8
2017-08-02T18:29:09.431Z,1008.8
2017-08-02T18:30:11.551Z,1008.8
2017-08-02T18:31:14.328Z,1008.8
2017-08-02T18:32:16.449Z,1008.8
2017-08-02T18:33:18.568Z,1008.8
2017-08-02T18:34:21.333Z,1008.8
2017-08-02T18:35:23.804Z,1008.9
2017-08-02T18:36:26.956Z,1008.9
2017-08-02T18:37:29.051Z,1008.9
2017-08-02T18:38:31.820Z,1008.9
2017-08-02T18:39:33.939Z,1009
2017-08-02T18:40:36.383Z,1008.9
2017-08-02T18:41:38.520Z,1008.9
2017-08-02T18:42:40.609Z,1008.9
2017-08-02T18:43:43.049Z,1008.9
2017-08-02T18:44:45.168Z,1008.9
2017-08-02T18:45:47.275Z,1008.9
2017-08-02T18:46:50.462Z,1009
2017-08-02T18:47:52.574Z,1008.9
2017-08-02T18:48:54.691Z,1008.9
2017-08-02T18:49:56.782Z,1009
2017-08-02T18:50:59.220Z,1008.9
2017-08-02T18:52:01.686Z,1008.9
2017-08-02T18:53:03.796Z,1009
2017-08-02T18:54:06.241Z,1009
2017-08-02T18:55:08.334Z,1009
2017-08-02T18:56:10.437Z,1008.9
2017-08-02T18:57:13.247Z,1009
2017-08-02T18:58:15.676Z,1009
2017-08-02T18:59:18.120Z,1009
2017-08-02T19:00:20.558Z,1009
2017-08-02T19:01:23.691Z,1009
2017-08-02T19:02:25.809Z,1009